Garfield, Arkansas
Current Conditions -  °F | °C
As of 2:57 AM on Friday 31 Oct 2014 (Local Time) from KROG Reporting Station
Clear Clear  
Wind Chill: 51°   Ceiling: Unl
Heat Index: 51°   Visibility: 10mi
Dew Point: 41°   Wind: 7mph
Humidity: 68%   Direction: 350°N
Pressure: 30.17"   Gusts: NA
Location:  36.45°N, 93.97°W
Report Text: KROG 310757Z AUTO 35006KT 10SM CLR 11/05 A3017 RMK AO2 SLP210 T01060050 TSNO $
Loading
Personal Weather Stations






























Interactive Weather Map
Tropical Storm Tracking
New forecast layout! Learn more

10-Day Weather Forecast

Advertisements
Track Severe Weather on mobile